Terminal Aerodrome Forecast
Issued by NWS Wilmington, OH

Current Version | Previous Version | Graphics & Text | Print | Product List | Glossary On
Versions: 1 2 3 4 5 6 7 8 9 10 11 12 13
318
FTUS41 KILN 040359 AAB
TAFILN
TAF AMD
KILN 040359Z 0404/0424 27013KT P6SM OVC035
     FM040500 26011KT P6SM OVC025
     FM041500 27010KT P6SM BKN028
     FM042200 28007KT P6SM FEW030=

USA.gov is the U.S. government's official web portal to all federal, state and local government web resources and services.